createdAt,value
2023-03-16T00:00:35.432Z,1.31
2023-03-16T00:03:04.641Z,1.37
2023-03-16T00:05:34.801Z,1.39
2023-03-16T00:08:02.718Z,1.26
2023-03-16T00:10:31.565Z,1.20
2023-03-16T00:13:02.661Z,1.12
2023-03-16T00:15:30.526Z,1.10
2023-03-16T00:18:00.668Z,1.08
2023-03-16T00:20:29.759Z,1.08
2023-03-16T00:22:57.643Z,1.00
2023-03-16T00:25:25.355Z,0.93
2023-03-16T00:28:00.530Z,0.94
2023-03-16T00:30:29.920Z,0.94
2023-03-16T00:32:57.736Z,0.93
2023-03-16T00:35:28.162Z,0.89
2023-03-16T00:37:57.588Z,0.89
2023-03-16T00:40:26.451Z,0.88
2023-03-16T00:42:55.072Z,0.91
2023-03-16T00:45:23.419Z,0.92
2023-03-16T00:47:54.124Z,0.91
2023-03-16T00:50:22.650Z,0.90
2023-03-16T00:52:53.571Z,0.92
2023-03-16T00:55:24.981Z,0.87
2023-03-16T00:57:52.781Z,0.87
2023-03-16T01:00:21.552Z,0.87
2023-03-16T01:02:53.494Z,0.82
2023-03-16T01:05:21.404Z,0.83
2023-03-16T01:07:49.174Z,0.76
2023-03-16T01:10:17.572Z,0.79
2023-03-16T01:12:46.754Z,0.77
2023-03-16T01:15:15.304Z,0.78
2023-03-16T01:17:43.012Z,0.73
2023-03-16T01:20:15.455Z,0.76
2023-03-16T01:22:43.293Z,0.78
2023-03-16T01:25:14.617Z,0.85
2023-03-16T01:27:43.329Z,0.92
2023-03-16T01:30:13.556Z,0.94
2023-03-16T01:32:41.929Z,0.87
2023-03-16T01:35:11.796Z,0.69
2023-03-16T01:37:41.357Z,0.70
2023-03-16T01:40:18.379Z,0.65
2023-03-16T01:42:47.539Z,0.63
2023-03-16T01:45:53.814Z,0.62
2023-03-16T01:48:27.484Z,0.61
2023-03-16T01:50:57.658Z,0.59
2023-03-16T01:53:26.713Z,0.57
2023-03-16T01:55:55.861Z,0.57
2023-03-16T01:58:25.857Z,0.56
2023-03-16T02:00:54.393Z,0.56
2023-03-16T02:03:24.938Z,0.54
2023-03-16T02:06:05.395Z,0.53
2023-03-16T02:08:35.942Z,0.52
2023-03-16T02:11:10.512Z,0.41
2023-03-16T02:13:46.312Z,0.39
2023-03-16T02:16:19.264Z,0.35
2023-03-16T02:18:49.519Z,0.32
2023-03-16T02:21:25.444Z,0.34
2023-03-16T02:23:54.464Z,0.33
2023-03-16T02:26:32.054Z,0.30
2023-03-16T02:29:15.064Z,0.25
2023-03-16T02:31:49.467Z,0.30
2023-03-16T02:34:19.037Z,0.29
2023-03-16T02:36:49.834Z,0.22
2023-03-16T02:39:20.517Z,0.10
2023-03-16T02:41:48.597Z,0.08
2023-03-16T02:44:24.153Z,0.07
2023-03-16T02:46:58.029Z,0.09
2023-03-16T02:49:31.834Z,0.04
2023-03-16T02:51:59.642Z,0.01
2023-03-16T02:54:27.535Z,0.02
2023-03-16T02:56:55.935Z,-0.02
2023-03-16T02:59:25.171Z,-0.09
2023-03-16T03:01:54.326Z,-0.06
2023-03-16T03:04:23.425Z,-0.14
2023-03-16T03:06:53.157Z,-0.24
2023-03-16T03:09:21.816Z,-0.23
2023-03-16T03:11:53.625Z,-0.22
2023-03-16T03:14:27.422Z,-0.22
2023-03-16T03:16:56.797Z,-0.21
2023-03-16T03:19:27.179Z,-0.21
2023-03-16T03:21:56.682Z,-0.19
2023-03-16T03:24:24.903Z,-0.20
2023-03-16T03:26:53.158Z,-0.20
2023-03-16T03:29:22.600Z,-0.21
2023-03-16T03:31:50.368Z,-0.21
2023-03-16T03:34:19.512Z,-0.17
2023-03-16T03:36:47.261Z,-0.12
2023-03-16T03:39:15.051Z,-0.12
2023-03-16T03:41:42.824Z,-0.14
2023-03-16T03:44:11.381Z,-0.13
2023-03-16T03:46:39.195Z,-0.18
2023-03-16T03:49:07.121Z,-0.21
2023-03-16T03:51:37.610Z,-0.26
2023-03-16T03:54:11.732Z,-0.27
2023-03-16T03:56:47.321Z,-0.27
2023-03-16T03:59:17.235Z,-0.28
2023-03-16T04:02:13.872Z,-0.33
2023-03-16T04:04:51.184Z,-0.35
2023-03-16T04:07:20.373Z,-0.42
2023-03-16T04:09:49.793Z,-0.44
2023-03-16T04:12:26.931Z,-0.43
2023-03-16T04:14:55.008Z,-0.44
2023-03-16T04:17:24.164Z,-0.43
2023-03-16T04:19:54.440Z,-0.39
2023-03-16T04:22:26.508Z,-0.36
2023-03-16T04:24:54.431Z,-0.33
2023-03-16T04:27:24.124Z,-0.33
2023-03-16T04:29:55.691Z,-0.31
2023-03-16T04:32:27.277Z,-0.30
2023-03-16T04:34:56.500Z,-0.36
2023-03-16T04:37:34.416Z,-0.31
2023-03-16T04:40:10.918Z,-0.29
2023-03-16T04:42:39.916Z,-0.27
2023-03-16T04:45:10.117Z,-0.25
2023-03-16T04:47:38.428Z,-0.24
2023-03-16T04:50:08.051Z,-0.20
2023-03-16T04:52:37.754Z,-0.26
2023-03-16T04:55:07.206Z,-0.28
2023-03-16T04:57:36.082Z,-0.30
2023-03-16T05:00:11.929Z,-0.33
2023-03-16T05:02:47.305Z,-0.36
2023-03-16T05:05:17.499Z,-0.30
2023-03-16T05:07:46.763Z,-0.31
2023-03-16T05:10:21.060Z,-0.27
2023-03-16T05:12:48.974Z,-0.28
2023-03-16T05:15:16.815Z,-0.34
2023-03-16T05:17:46.806Z,-0.30
2023-03-16T05:20:16.453Z,-0.30
2023-03-16T05:22:52.721Z,-0.29
2023-03-16T05:25:32.570Z,-0.28
2023-03-16T05:28:05.416Z,-0.30
2023-03-16T05:30:43.145Z,-0.35
2023-03-16T05:33:14.445Z,-0.31
2023-03-16T05:35:43.715Z,-0.26
2023-03-16T05:38:15.805Z,-0.25
2023-03-16T05:40:44.791Z,-0.25
2023-03-16T05:43:20.152Z,-0.21
2023-03-16T05:45:51.585Z,-0.20
2023-03-16T05:48:21.158Z,-0.22
2023-03-16T05:50:54.192Z,-0.18
2023-03-16T05:53:29.287Z,-0.10
2023-03-16T05:56:03.376Z,-0.01
2023-03-16T05:58:34.633Z,0.09
2023-03-16T06:01:07.647Z,0.17
2023-03-16T06:03:39.546Z,0.22
2023-03-16T06:06:09.856Z,0.29
2023-03-16T06:08:50.024Z,0.36
2023-03-16T06:11:23.242Z,0.40
2023-03-16T06:13:51.035Z,0.42
2023-03-16T06:16:18.855Z,0.46
2023-03-16T06:18:47.534Z,0.50
2023-03-16T06:21:15.391Z,0.54
2023-03-16T06:23:45.614Z,0.58
2023-03-16T06:26:18.748Z,0.57
2023-03-16T06:28:49.494Z,0.59
2023-03-16T06:31:17.418Z,0.62
2023-03-16T06:33:47.557Z,0.65
2023-03-16T06:36:17.894Z,0.72
2023-03-16T06:38:49.408Z,0.83
2023-03-16T06:41:42.703Z,0.95
2023-03-16T06:44:12.111Z,1.01
2023-03-16T06:46:48.193Z,1.12
2023-03-16T06:49:15.951Z,1.23
2023-03-16T06:51:43.723Z,1.36
2023-03-16T06:54:11.730Z,1.50
2023-03-16T06:56:46.859Z,1.56
2023-03-16T06:59:14.731Z,1.65
2023-03-16T07:01:44.324Z,1.82
2023-03-16T07:04:12.596Z,1.97
2023-03-16T07:06:41.471Z,2.08
2023-03-16T07:09:09.713Z,2.15
2023-03-16T07:11:37.584Z,2.19
2023-03-16T07:14:06.782Z,2.35
2023-03-16T07:16:36.232Z,2.39
2023-03-16T07:19:06.336Z,2.51
2023-03-16T07:21:39.282Z,2.60
2023-03-16T07:24:11.426Z,2.74
2023-03-16T07:26:39.494Z,2.82
2023-03-16T07:29:09.971Z,2.94
2023-03-16T07:31:38.395Z,3.04
2023-03-16T07:34:11.573Z,3.11
2023-03-16T07:36:45.373Z,3.24
2023-03-16T07:39:14.265Z,3.31
2023-03-16T07:41:42.922Z,3.38
2023-03-16T07:44:22.285Z,3.49
2023-03-16T07:46:50.291Z,3.58
2023-03-16T07:49:18.362Z,3.70
2023-03-16T07:51:48.223Z,3.78
2023-03-16T07:54:20.227Z,3.86
2023-03-16T07:56:49.956Z,3.92
2023-03-16T07:59:48.715Z,4.00
2023-03-16T08:02:21.522Z,4.09
2023-03-16T08:04:50.047Z,4.26
2023-03-16T08:07:19.266Z,4.41
2023-03-16T08:10:13.736Z,4.46
2023-03-16T08:12:48.571Z,4.55
2023-03-16T08:15:19.311Z,4.66
2023-03-16T08:17:47.782Z,4.80
2023-03-16T08:20:23.807Z,4.83
2023-03-16T08:22:51.687Z,4.92
2023-03-16T08:25:24.940Z,5.10
2023-03-16T08:28:04.411Z,5.17
2023-03-16T08:30:35.169Z,5.32
2023-03-16T08:33:36.061Z,5.57
2023-03-16T08:36:07.542Z,5.61
2023-03-16T08:38:35.490Z,5.72
2023-03-16T08:41:07.599Z,5.83
2023-03-16T08:43:38.259Z,5.95
2023-03-16T08:46:07.834Z,6.17
2023-03-16T08:48:48.489Z,6.17
2023-03-16T08:51:17.475Z,6.30
2023-03-16T08:53:45.275Z,6.36
2023-03-16T08:56:14.642Z,6.47
2023-03-16T08:58:45.377Z,6.59
2023-03-16T09:01:17.526Z,6.67
2023-03-16T09:03:46.168Z,6.64
2023-03-16T09:06:15.728Z,6.76
2023-03-16T09:08:45.354Z,7.02
2023-03-16T09:11:15.432Z,7.11
2023-03-16T09:13:44.629Z,7.13
2023-03-16T09:16:15.861Z,7.26
2023-03-16T09:18:44.140Z,7.48
2023-03-16T09:21:14.131Z,7.64
2023-03-16T09:23:43.045Z,7.69
2023-03-16T09:26:13.269Z,7.74
2023-03-16T09:28:42.983Z,7.83
2023-03-16T09:31:16.573Z,8.03
2023-03-16T09:33:46.321Z,8.07
2023-03-16T09:36:14.211Z,8.21
2023-03-16T09:38:43.807Z,8.39
2023-03-16T09:41:23.704Z,8.60
2023-03-16T09:44:04.710Z,8.65
2023-03-16T09:46:35.810Z,8.75
2023-03-16T09:49:06.138Z,8.85
2023-03-16T09:51:39.699Z,8.95
2023-03-16T09:54:19.211Z,8.88
2023-03-16T09:56:47.757Z,8.97
2023-03-16T09:59:18.355Z,9.11
2023-03-16T10:01:57.048Z,9.17
2023-03-16T10:04:41.649Z,9.41
2023-03-16T10:07:26.165Z,9.48
2023-03-16T10:09:58.763Z,9.78
2023-03-16T10:12:32.930Z,9.71
2023-03-16T10:15:07.207Z,9.83
2023-03-16T10:17:42.382Z,10.05
2023-03-16T10:20:18.274Z,10.25
2023-03-16T10:22:48.171Z,10.29
2023-03-16T10:25:23.267Z,10.14
2023-03-16T10:27:51.973Z,10.30
2023-03-16T10:30:25.804Z,10.35
2023-03-16T10:32:53.878Z,10.31
2023-03-16T10:35:31.510Z,10.25
2023-03-16T10:38:00.004Z,10.21
2023-03-16T10:40:32.694Z,10.28
2023-03-16T10:43:06.762Z,10.28
2023-03-16T10:45:37.014Z,10.52
2023-03-16T10:48:09.461Z,10.71
2023-03-16T10:50:38.625Z,10.85
2023-03-16T10:53:18.137Z,10.95
2023-03-16T10:55:46.079Z,11.23
2023-03-16T10:58:25.180Z,11.26
2023-03-16T11:00:53.578Z,11.46
2023-03-16T11:03:25.498Z,11.42
2023-03-16T11:06:02.595Z,11.41
2023-03-16T11:08:34.508Z,11.66
2023-03-16T11:11:11.003Z,11.75
2023-03-16T11:13:44.931Z,12.02
2023-03-16T11:16:24.912Z,12.38
2023-03-16T11:18:57.465Z,12.36
2023-03-16T11:21:39.536Z,12.44
2023-03-16T11:24:16.033Z,12.56
2023-03-16T11:26:53.112Z,12.45
2023-03-16T11:29:28.038Z,12.34
2023-03-16T11:31:59.814Z,12.45
2023-03-16T11:34:29.596Z,12.32
2023-03-16T11:37:06.451Z,12.37
2023-03-16T11:39:41.639Z,12.75
2023-03-16T11:42:20.583Z,13.14
2023-03-16T11:44:59.268Z,13.43
2023-03-16T11:47:59.673Z,13.57
2023-03-16T11:50:33.006Z,13.75
2023-03-16T11:53:07.599Z,13.94
2023-03-16T11:55:44.695Z,14.08
2023-03-16T11:58:31.615Z,14.00
2023-03-16T12:01:12.607Z,13.99
2023-03-16T12:03:53.765Z,13.79
2023-03-16T12:06:31.404Z,14.00
2023-03-16T12:09:30.120Z,14.09
2023-03-16T12:12:04.666Z,13.92
2023-03-16T12:14:38.210Z,13.94
2023-03-16T12:17:13.124Z,14.13
2023-03-16T12:19:46.331Z,14.37
2023-03-16T12:22:21.472Z,14.32
2023-03-16T12:24:58.244Z,14.37
2023-03-16T12:27:31.461Z,14.39
2023-03-16T12:30:09.350Z,14.39
2023-03-16T12:32:50.216Z,14.11
2023-03-16T12:35:29.002Z,13.93
2023-03-16T12:38:06.317Z,13.97
2023-03-16T12:40:44.562Z,14.06
2023-03-16T12:43:31.064Z,14.11
2023-03-16T12:46:05.642Z,14.19
2023-03-16T12:48:37.820Z,14.50
2023-03-16T12:51:06.202Z,14.65
2023-03-16T12:53:44.423Z,14.57
2023-03-16T12:56:16.485Z,14.54
2023-03-16T12:58:47.058Z,14.68
2023-03-16T13:01:17.190Z,14.91
2023-03-16T13:03:48.059Z,15.11
2023-03-16T13:06:24.813Z,15.20
2023-03-16T13:08:59.670Z,15.32
2023-03-16T13:11:29.613Z,15.41
2023-03-16T13:14:10.988Z,15.53
2023-03-16T13:16:40.245Z,15.28
2023-03-16T13:19:27.227Z,15.30
2023-03-16T13:22:04.362Z,15.30
2023-03-16T13:24:43.178Z,15.47
2023-03-16T13:27:23.225Z,15.61
2023-03-16T13:29:59.601Z,15.49
2023-03-16T13:32:31.690Z,15.59
2023-03-16T13:35:02.185Z,15.67
2023-03-16T13:37:31.210Z,15.71
2023-03-16T13:40:01.747Z,15.66
2023-03-16T13:42:33.131Z,15.71
2023-03-16T13:45:12.375Z,15.56
2023-03-16T13:47:43.579Z,15.72
2023-03-16T13:50:13.660Z,15.73
2023-03-16T13:52:44.891Z,15.86
2023-03-16T13:55:19.502Z,16.02
2023-03-16T13:57:49.860Z,15.51
2023-03-16T14:00:22.025Z,15.24
2023-03-16T14:02:55.539Z,15.31
2023-03-16T14:05:25.895Z,15.37
2023-03-16T14:07:54.905Z,15.03
2023-03-16T14:10:24.027Z,14.88
2023-03-16T14:12:54.095Z,14.93
2023-03-16T14:15:25.883Z,14.99
2023-03-16T14:17:54.083Z,15.19
2023-03-16T14:20:25.488Z,15.19
2023-03-16T14:22:54.612Z,15.25
2023-03-16T14:25:29.054Z,15.21
2023-03-16T14:28:07.390Z,15.18
2023-03-16T14:30:35.710Z,15.04
2023-03-16T14:33:06.632Z,15.03
2023-03-16T14:35:41.770Z,14.91
2023-03-16T14:38:23.294Z,14.97
2023-03-16T14:40:56.727Z,14.88
2023-03-16T14:43:31.360Z,14.76
2023-03-16T14:46:00.023Z,14.41
2023-03-16T14:48:30.250Z,14.42
2023-03-16T14:51:00.919Z,14.45
2023-03-16T14:53:29.226Z,14.18
2023-03-16T14:55:57.726Z,14.16
2023-03-16T14:58:29.294Z,14.08
2023-03-16T15:00:57.921Z,13.99
2023-03-16T15:03:32.918Z,13.84
2023-03-16T15:06:01.338Z,13.74
2023-03-16T15:08:32.808Z,13.71
2023-03-16T15:11:04.909Z,13.61
2023-03-16T15:13:53.184Z,13.60
2023-03-16T15:16:23.016Z,13.47
2023-03-16T15:18:51.810Z,13.42
2023-03-16T15:21:24.573Z,13.36
2023-03-16T15:23:52.972Z,13.26
2023-03-16T15:26:27.173Z,13.19
2023-03-16T15:28:58.127Z,13.03
2023-03-16T15:31:26.712Z,12.90
2023-03-16T15:33:54.592Z,12.84
2023-03-16T15:36:24.305Z,12.79
2023-03-16T15:38:55.058Z,12.81
2023-03-16T15:41:24.926Z,12.85
2023-03-16T15:44:00.516Z,12.83
2023-03-16T15:46:32.818Z,12.75
2023-03-16T15:49:00.710Z,12.77
2023-03-16T15:51:30.933Z,12.66
2023-03-16T15:54:02.690Z,12.66
2023-03-16T15:56:50.952Z,12.65
2023-03-16T15:59:22.190Z,12.60
2023-03-16T16:01:52.668Z,12.53
2023-03-16T16:04:24.206Z,12.47
2023-03-16T16:06:55.008Z,12.44
2023-03-16T16:09:23.101Z,12.36
2023-03-16T16:11:51.349Z,12.26
2023-03-16T16:14:24.650Z,12.17
2023-03-16T16:16:56.839Z,12.08
2023-03-16T16:19:25.448Z,12.06
2023-03-16T16:21:56.672Z,11.89
2023-03-16T16:24:25.141Z,11.74
2023-03-16T16:26:55.287Z,11.61
2023-03-16T16:29:27.129Z,11.47
2023-03-16T16:31:56.309Z,11.31
2023-03-16T16:34:25.561Z,11.11
2023-03-16T16:36:54.017Z,10.93
2023-03-16T16:39:22.766Z,10.77
2023-03-16T16:41:54.352Z,10.59
2023-03-16T16:44:24.600Z,10.47
2023-03-16T16:46:53.483Z,10.29
2023-03-16T16:49:24.862Z,10.16
2023-03-16T16:51:53.357Z,9.97
2023-03-16T16:54:23.287Z,9.82
2023-03-16T16:56:54.046Z,9.63
2023-03-16T16:59:23.830Z,9.50
2023-03-16T17:01:53.980Z,9.42
2023-03-16T17:04:26.916Z,9.29
2023-03-16T17:06:58.278Z,9.16
2023-03-16T17:09:31.026Z,9.08
2023-03-16T17:12:00.054Z,8.96
2023-03-16T17:14:28.683Z,8.84
2023-03-16T17:16:59.777Z,8.72
2023-03-16T17:19:29.528Z,8.59
2023-03-16T17:22:01.519Z,8.39
2023-03-16T17:24:32.577Z,8.36
2023-03-16T17:27:01.693Z,8.28
2023-03-16T17:29:36.514Z,8.21
2023-03-16T17:32:15.025Z,8.15
2023-03-16T17:34:44.140Z,8.06
2023-03-16T17:37:16.386Z,8.00
2023-03-16T17:39:44.195Z,7.92
2023-03-16T17:42:15.840Z,7.84
2023-03-16T17:44:49.043Z,7.77
2023-03-16T17:47:19.111Z,7.68
2023-03-16T17:49:48.953Z,7.62
2023-03-16T17:52:20.973Z,7.59
2023-03-16T17:54:49.838Z,7.55
2023-03-16T17:57:19.752Z,7.57
2023-03-16T17:59:48.252Z,7.53
2023-03-16T18:02:41.365Z,7.48
2023-03-16T18:05:18.899Z,7.46
2023-03-16T18:07:47.635Z,7.45
2023-03-16T18:10:21.918Z,7.38
2023-03-16T18:12:56.802Z,7.34
2023-03-16T18:15:31.474Z,7.31
2023-03-16T18:18:00.311Z,7.26
2023-03-16T18:20:33.623Z,7.23
2023-03-16T18:23:11.350Z,7.23
2023-03-16T18:25:40.276Z,7.17
2023-03-16T18:28:09.800Z,7.16
2023-03-16T18:30:41.286Z,7.15
2023-03-16T18:33:17.281Z,7.10
2023-03-16T18:35:51.555Z,6.98
2023-03-16T18:38:26.168Z,6.88
2023-03-16T18:40:53.871Z,6.81
2023-03-16T18:43:21.565Z,6.81
2023-03-16T18:45:50.489Z,6.83
2023-03-16T18:48:26.932Z,6.78
2023-03-16T18:50:56.423Z,6.77
2023-03-16T18:53:27.819Z,6.73
2023-03-16T18:55:57.388Z,6.73
2023-03-16T18:58:26.861Z,6.69
2023-03-16T19:00:56.394Z,6.67
2023-03-16T19:03:26.570Z,6.62
2023-03-16T19:05:58.009Z,6.59
2023-03-16T19:08:27.489Z,6.57
2023-03-16T19:10:57.589Z,6.54
2023-03-16T19:13:26.698Z,6.48
2023-03-16T19:16:00.329Z,6.44
2023-03-16T19:18:29.245Z,6.41
2023-03-16T19:21:04.459Z,6.36
2023-03-16T19:23:36.333Z,6.37
2023-03-16T19:26:04.589Z,6.34
2023-03-16T19:28:36.428Z,6.33
2023-03-16T19:31:09.807Z,6.31
2023-03-16T19:33:38.805Z,6.26
2023-03-16T19:36:16.847Z,6.23
2023-03-16T19:38:50.293Z,6.20
2023-03-16T19:41:27.808Z,6.17
2023-03-16T19:43:59.480Z,6.08
2023-03-16T19:46:28.284Z,6.07
2023-03-16T19:48:56.609Z,6.07
2023-03-16T19:51:29.191Z,6.05
2023-03-16T19:54:01.290Z,6.01
2023-03-16T19:56:29.324Z,5.98
2023-03-16T19:58:57.202Z,5.93
2023-03-16T20:01:32.259Z,5.92
2023-03-16T20:04:01.450Z,5.91
2023-03-16T20:06:33.183Z,5.88
2023-03-16T20:09:03.979Z,5.88
2023-03-16T20:11:33.768Z,5.84
2023-03-16T20:14:03.496Z,5.81
2023-03-16T20:16:33.492Z,5.77
2023-03-16T20:19:05.151Z,5.75
2023-03-16T20:21:36.100Z,5.73
2023-03-16T20:24:04.415Z,5.72
2023-03-16T20:26:33.163Z,5.65
2023-03-16T20:29:01.552Z,5.58
2023-03-16T20:31:34.403Z,5.52
2023-03-16T20:34:04.688Z,5.51
2023-03-16T20:36:32.839Z,5.48
2023-03-16T20:39:01.929Z,5.45
2023-03-16T20:41:32.880Z,5.45
2023-03-16T20:44:02.138Z,5.43
2023-03-16T20:46:32.781Z,5.41
2023-03-16T20:49:02.315Z,5.41
2023-03-16T20:51:30.474Z,5.38
2023-03-16T20:54:00.692Z,5.35
2023-03-16T20:56:31.422Z,5.36
2023-03-16T20:58:59.228Z,5.36
2023-03-16T21:01:29.811Z,5.32
2023-03-16T21:04:00.080Z,5.31
2023-03-16T21:06:31.698Z,5.28
2023-03-16T21:09:02.449Z,5.26
2023-03-16T21:11:35.864Z,5.16
2023-03-16T21:14:04.401Z,5.08
2023-03-16T21:16:32.373Z,5.02
2023-03-16T21:19:00.136Z,5.03
2023-03-16T21:21:27.858Z,4.98
2023-03-16T21:23:55.609Z,5.00
2023-03-16T21:26:26.288Z,4.95
2023-03-16T21:28:58.277Z,4.90
2023-03-16T21:31:27.121Z,4.87
2023-03-16T21:33:58.797Z,4.83
2023-03-16T21:36:28.133Z,4.78
2023-03-16T21:38:57.218Z,4.75
2023-03-16T21:41:25.573Z,4.71
2023-03-16T21:43:54.411Z,4.73
2023-03-16T21:46:25.516Z,4.72
2023-03-16T21:48:56.090Z,4.71
2023-03-16T21:51:28.524Z,4.70
2023-03-16T21:53:57.994Z,4.68
2023-03-16T21:56:26.515Z,4.65
2023-03-16T21:58:55.604Z,4.64
2023-03-16T22:01:26.693Z,4.61
2023-03-16T22:03:57.687Z,4.61
2023-03-16T22:06:27.879Z,4.57
2023-03-16T22:08:56.310Z,4.53
2023-03-16T22:11:27.718Z,4.53
2023-03-16T22:13:56.960Z,4.51
2023-03-16T22:16:28.420Z,4.50
2023-03-16T22:18:57.956Z,4.48
2023-03-16T22:21:33.340Z,4.47
2023-03-16T22:24:02.520Z,4.44
2023-03-16T22:26:30.771Z,4.40
2023-03-16T22:29:00.844Z,4.35
2023-03-16T22:31:34.431Z,4.29
2023-03-16T22:34:04.601Z,4.26
2023-03-16T22:36:34.349Z,4.24
2023-03-16T22:39:05.338Z,4.21
2023-03-16T22:41:33.290Z,4.20
2023-03-16T22:44:01.601Z,4.15
2023-03-16T22:46:31.283Z,4.14
2023-03-16T22:48:59.998Z,4.09
2023-03-16T22:51:30.769Z,4.08
2023-03-16T22:54:01.917Z,4.04
2023-03-16T22:56:31.987Z,4.02
2023-03-16T22:59:02.738Z,4.03
2023-03-16T23:01:34.774Z,3.99
2023-03-16T23:04:03.307Z,3.98
2023-03-16T23:06:32.482Z,3.94
2023-03-16T23:09:00.396Z,3.96
2023-03-16T23:11:30.837Z,3.90
2023-03-16T23:13:59.696Z,3.83
2023-03-16T23:16:30.377Z,3.81
2023-03-16T23:18:59.653Z,3.81
2023-03-16T23:21:29.887Z,3.78
2023-03-16T23:24:04.082Z,3.71
2023-03-16T23:26:33.082Z,3.67
2023-03-16T23:29:00.918Z,3.66
2023-03-16T23:31:28.852Z,3.66
2023-03-16T23:33:56.899Z,3.63
2023-03-16T23:36:27.269Z,3.69
2023-03-16T23:38:55.238Z,3.64
2023-03-16T23:41:25.783Z,3.63
2023-03-16T23:43:54.454Z,3.67
2023-03-16T23:46:24.875Z,3.64
2023-03-16T23:48:55.062Z,3.61
2023-03-16T23:51:27.086Z,3.57
2023-03-16T23:53:56.566Z,3.55
2023-03-16T23:56:25.182Z,3.60
2023-03-16T23:58:52.895Z,3.55
